Time;durP1;ratioP1;P1;durP2;ratioP2;P2;SDS_P1;SDS_P2;PMS_P1;PMS_P2;Temp;Humidity;BMP_temperature;BMP_pressure;BME280_temperature;BME280_humidity;BME280_pressure;Samples;Min_cycle;Max_cycle;Signal;HPM_P1;HPM_P2
2023/10/18 00:02:49;;;;;;;8.63;4.65;;;;;;;6.47;100.00;101778.91;4936615;29;20050;-76
2023/10/18 00:05:18;;;;;;;11.20;4.07;;;;;;;6.49;100.00;101778.97;4931978;28;20051;-77
2023/10/18 00:07:46;;;;;;;5.50;3.95;;;;;;;6.51;100.00;101774.69;4917964;29;20057;-77
2023/10/18 00:10:17;;;;;;;8.00;4.60;;;;;;;6.54;100.00;101761.69;4930536;29;20052;-77
2023/10/18 00:12:45;;;;;;;7.47;4.75;;;;;;;6.57;100.00;101764.41;4917400;29;20055;-77
2023/10/18 00:15:14;;;;;;;8.32;5.40;;;;;;;6.57;100.00;101767.91;4864853;28;20047;-77
2023/10/18 00:17:42;;;;;;;7.32;6.10;;;;;;;6.57;100.00;101756.56;4913369;29;20051;-77
2023/10/18 00:20:16;;;;;;;9.30;6.25;;;;;;;6.57;100.00;101762.69;4905383;29;20055;-76
2023/10/18 00:22:44;;;;;;;13.20;7.70;;;;;;;6.58;100.00;101751.38;4948821;29;20124;-78
2023/10/18 00:25:12;;;;;;;12.00;7.15;;;;;;;6.60;100.00;101746.19;4899345;29;20050;-76
2023/10/18 00:27:43;;;;;;;11.48;7.65;;;;;;;6.59;100.00;101744.41;4933280;29;20051;-77
2023/10/18 00:30:11;;;;;;;9.57;7.55;;;;;;;6.59;100.00;101745.28;4932497;29;20051;-77
2023/10/18 00:32:41;;;;;;;11.07;7.80;;;;;;;6.60;100.00;101748.81;4881601;29;20047;-77
2023/10/18 00:35:18;;;;;;;11.38;8.57;;;;;;;6.60;100.00;101741.84;4925941;28;20498;-77
2023/10/18 00:37:54;;;;;;;12.80;8.82;;;;;;;6.61;100.00;101747.97;4924365;29;20051;-77
2023/10/18 00:43:31;;;;;;;13.30;8.70;;;;;;;6.56;100.00;101736.44;4929689;29;20051;-77
2023/10/18 00:45:58;;;;;;;10.48;8.13;;;;;;;6.56;100.00;101728.56;4947906;28;20043;-76
2023/10/18 00:48:28;;;;;;;12.98;8.50;;;;;;;6.58;100.00;101727.81;4905665;29;20055;-76
2023/10/18 00:50:58;;;;;;;11.15;8.38;;;;;;;6.56;100.00;101724.25;4902844;29;20051;-78
2023/10/18 00:53:30;;;;;;;12.27;8.80;;;;;;;6.57;100.00;101718.16;4920516;29;20047;-77
2023/10/18 00:55:59;;;;;;;12.70;8.32;;;;;;;6.55;100.00;101709.38;4932100;29;20066;-77
2023/10/18 00:58:30;;;;;;;12.40;9.23;;;;;;;6.55;100.00;101711.97;4929975;29;20047;-77
2023/10/18 01:01:01;;;;;;;11.13;8.63;;;;;;;6.53;100.00;101713.66;4915941;28;20398;-76
2023/10/18 01:03:29;;;;;;;13.63;8.70;;;;;;;6.57;100.00;101702.44;4902626;29;20051;-78
2023/10/18 01:06:17;;;;;;;10.48;8.13;;;;;;;6.60;100.00;101697.31;4901888;29;20043;-76
2023/10/18 01:08:48;;;;;;;12.45;8.63;;;;;;;6.61;100.00;101704.31;4917661;29;20051;-77
2023/10/18 01:11:19;;;;;;;15.48;8.18;;;;;;;6.61;100.00;101698.19;4915161;29;20622;-76
2023/10/18 01:13:47;;;;;;;9.38;7.82;;;;;;;6.63;100.00;101693.91;4931111;29;20070;-77
2023/10/18 01:16:23;;;;;;;11.95;8.18;;;;;;;6.62;100.00;101689.53;4861666;28;20055;-77
2023/10/18 01:18:54;;;;;;;11.27;7.78;;;;;;;6.59;100.00;101695.53;4926953;29;20043;-77
2023/10/18 01:21:22;;;;;;;13.13;8.50;;;;;;;6.58;100.00;101692.88;4919487;28;20062;-78
2023/10/18 01:24:14;;;;;;;14.30;8.65;;;;;;;6.56;100.00;101684.06;4917520;29;20055;-77
2023/10/18 01:26:43;;;;;;;13.68;8.50;;;;;;;6.54;100.00;101686.66;4949841;29;20051;-77
2023/10/18 01:29:11;;;;;;;8.75;7.35;;;;;;;6.54;100.00;101680.50;4931481;29;20067;-76
2023/10/18 01:31:44;;;;;;;11.23;8.30;;;;;;;6.54;100.00;101676.19;4916301;29;20508;-78
2023/10/18 01:34:12;;;;;;;13.43;8.23;;;;;;;6.52;100.00;101683.09;4866878;29;20052;-77
2023/10/18 01:36:39;;;;;;;9.02;7.43;;;;;;;6.49;100.00;101671.63;4924547;28;20485;-77
2023/10/18 01:39:20;;;;;;;9.85;7.03;;;;;;;6.48;100.00;101673.31;4922627;29;20047;-78
2023/10/18 01:41:49;;;;;;;;;;;;;;;6.48;100.00;101678.56;4933872;29;20051;-76
2023/10/18 01:44:30;;;;;;;10.55;7.47;;;;;;;6.47;100.00;101668.94;4929730;29;20384;-77
2023/10/18 01:47:06;;;;;;;11.52;6.90;;;;;;;6.44;100.00;101677.56;4933191;29;20067;-77
2023/10/18 01:49:46;;;;;;;11.82;6.82;;;;;;;6.44;100.00;101671.44;4886103;29;20686;-77
2023/10/18 01:52:20;;;;;;;10.82;6.60;;;;;;;6.43;100.00;101678.44;4919792;29;20520;-76
2023/10/18 01:54:47;;;;;;;10.55;6.32;;;;;;;6.44;100.00;101679.31;4927117;29;20054;-76
2023/10/18 01:57:15;;;;;;;11.30;6.72;;;;;;;6.44;100.00;101668.84;4931908;29;20054;-76
2023/10/18 01:59:42;;;;;;;9.93;5.90;;;;;;;6.49;100.00;101671.63;4920608;29;20420;-77
2023/10/18 02:02:14;;;;;;;7.63;6.30;;;;;;;6.50;100.00;101662.91;4933998;29;20054;-77
2023/10/18 02:04:44;;;;;;;7.88;6.20;;;;;;;6.50;100.00;101655.06;4875874;29;20055;-77
2023/10/18 02:07:21;;;;;;;9.13;5.97;;;;;;;6.50;100.00;101653.31;4923584;28;20044;-76
2023/10/18 02:09:52;;;;;;;10.43;5.93;;;;;;;6.50;100.00;101653.31;4924882;28;20059;-77
2023/10/18 02:12:21;;;;;;;10.35;6.22;;;;;;;6.50;100.00;101658.56;4921870;28;20057;-76
2023/10/18 02:14:50;;;;;;;10.02;6.10;;;;;;;6.51;100.00;101649.00;4920134;29;20058;-77
2023/10/18 02:17:18;;;;;;;12.18;6.22;;;;;;;6.51;100.00;101649.88;4917625;29;20062;-76
2023/10/18 02:19:47;;;;;;;10.05;6.45;;;;;;;6.51;100.00;101660.34;4887255;29;20047;-76
2023/10/18 02:22:16;;;;;;;9.93;6.68;;;;;;;6.52;100.00;101661.22;4917146;29;20063;-76
2023/10/18 02:24:44;;;;;;;14.43;7.32;;;;;;;6.52;100.00;101656.91;4915147;28;20071;-76
2023/10/18 02:27:19;;;;;;;13.27;8.50;;;;;;;6.52;100.00;101656.91;4932675;29;20051;-76
2023/10/18 02:29:47;;;;;;;10.75;8.95;;;;;;;6.51;100.00;101647.25;4935206;29;20059;-77
2023/10/18 02:32:32;;;;;;;10.60;9.40;;;;;;;6.50;100.00;101648.09;4932155;29;20448;-77
2023/10/18 02:35:01;;;;;;;12.50;10.35;;;;;;;6.50;100.00;101647.19;4911943;28;20511;-76
2023/10/18 02:37:28;;;;;;;14.02;10.90;;;;;;;6.49;100.00;101648.06;4902212;28;20291;-76
2023/10/18 02:40:07;;;;;;;20.48;14.80;;;;;;;6.48;100.00;101649.75;4926324;28;20385;-76
2023/10/18 02:42:37;;;;;;;20.23;17.57;;;;;;;6.48;100.00;101649.75;4914231;29;20071;-76
2023/10/18 02:45:12;;;;;;;20.38;18.17;;;;;;;6.47;100.00;101645.38;4933771;29;20043;-76
2023/10/18 02:47:42;;;;;;;28.48;21.63;;;;;;;6.47;100.00;101648.00;4930031;28;20055;-77
2023/10/18 02:50:14;;;;;;;23.05;20.42;;;;;;;6.43;100.00;101635.66;4950677;29;20404;-76
2023/10/18 02:52:42;;;;;;;22.67;18.05;;;;;;;6.42;100.00;101636.47;4881972;29;20048;-77
2023/10/18 02:55:09;;;;;;;19.55;17.45;;;;;;;6.41;100.00;101632.09;4925827;29;20413;-77
2023/10/18 02:57:37;;;;;;;20.95;17.33;;;;;;;6.38;100.00;101627.63;4918736;29;20047;-77
2023/10/18 03:00:11;;;;;;;26.02;17.55;;;;;;;6.36;100.00;101626.69;4935225;28;20058;-77
2023/10/18 03:02:38;;;;;;;20.05;16.13;;;;;;;6.35;100.00;101616.16;4933073;29;20412;-77
2023/10/18 03:05:06;;;;;;;21.55;15.73;;;;;;;6.34;100.00;101615.28;4933770;29;20059;-77
2023/10/18 03:07:35;;;;;;;13.63;9.63;;;;;;;6.32;100.00;101613.47;4864112;28;20047;-77
2023/10/18 03:10:17;;;;;;;12.40;8.85;;;;;;;6.32;100.00;101614.34;4923039;29;20058;-77
2023/10/18 03:12:45;;;;;;;14.68;8.82;;;;;;;6.34;100.00;101619.66;4906506;29;20047;-77
2023/10/18 03:15:21;;;;;;;13.43;8.52;;;;;;;6.35;100.00;101613.56;4916566;29;20055;-77
2023/10/18 03:17:49;;;;;;;11.80;8.95;;;;;;;6.36;100.00;101617.97;4935801;29;20066;-78
2023/10/18 03:20:23;;;;;;;12.90;7.93;;;;;;;6.35;100.00;101610.94;4900298;29;20055;-76
2023/10/18 03:22:52;;;;;;;13.70;8.80;;;;;;;6.36;100.00;101602.25;4892668;29;20420;-77
2023/10/18 03:25:27;;;;;;;13.15;8.32;;;;;;;6.38;100.00;101584.88;4915767;29;20050;-77
2023/10/18 03:27:58;;;;;;;8.68;7.07;;;;;;;6.37;100.00;101584.00;4921703;29;20054;-77
2023/10/18 03:30:44;;;;;;;10.80;7.90;;;;;;;6.37;100.00;101577.84;4949787;29;20036;-77
2023/10/18 03:33:14;;;;;;;12.60;7.30;;;;;;;6.37;100.00;101572.59;4921316;29;20047;-77
2023/10/18 03:35:43;;;;;;;12.73;7.75;;;;;;;6.37;100.00;101572.59;4947245;29;20051;-77
2023/10/18 03:38:17;;;;;;;10.93;8.13;;;;;;;6.37;100.00;101565.66;4875537;29;20054;-77
2023/10/18 03:40:57;;;;;;;10.52;8.05;;;;;;;6.37;100.00;101563.03;4904644;29;20421;-77
2023/10/18 03:43:32;;;;;;;11.38;8.15;;;;;;;6.39;100.00;101560.44;4939382;29;20555;-77
2023/10/18 03:48:40;;;;;;;13.70;8.60;;;;;;;6.39;100.00;101542.13;4918333;29;20040;-78
2023/10/18 03:51:08;;;;;;;12.65;8.98;;;;;;;6.39;100.00;101544.75;4916852;29;20306;-77
2023/10/18 03:53:38;;;;;;;13.57;8.33;;;;;;;6.39;100.00;101548.28;4913425;28;20051;-77
2023/10/18 03:56:06;;;;;;;15.32;9.00;;;;;;;6.37;100.00;101543.81;4874015;28;20055;-78
2023/10/18 03:58:35;;;;;;;13.23;8.48;;;;;;;6.38;100.00;101541.25;4916277;29;20060;-77
2023/10/18 04:01:05;;;;;;;12.00;8.63;;;;;;;6.37;100.00;101534.25;4905557;28;20560;-77
2023/10/18 04:03:35;;;;;;;13.70;10.27;;;;;;;6.37;100.00;101531.63;4887689;29;20059;-78
2023/10/18 04:06:09;;;;;;;14.70;9.25;;;;;;;6.36;100.00;101528.97;4901036;29;20052;-78
2023/10/18 04:08:39;;;;;;;12.32;9.35;;;;;;;6.33;100.00;101518.38;4916559;28;20051;-77
2023/10/18 04:11:08;;;;;;;15.45;10.43;;;;;;;6.33;100.00;101529.75;4903743;28;20054;-77
2023/10/18 04:13:36;;;;;;;15.95;11.35;;;;;;;6.29;100.00;101527.84;4924258;29;20433;-77
2023/10/18 04:16:17;;;;;;;23.90;14.15;;;;;;;6.27;100.00;101519.06;4906177;29;20059;-77
2023/10/18 04:18:45;;;;;;;19.70;12.85;;;;;;;6.24;100.00;101524.22;4920272;29;20055;-77
2023/10/18 04:21:15;;;;;;;24.13;16.00;;;;;;;6.21;100.00;101522.38;4904308;29;20051;-77
2023/10/18 04:23:49;;;;;;;26.45;16.35;;;;;;;6.19;100.00;101528.41;4920806;29;20497;-77
2023/10/18 04:26:21;;;;;;;21.42;16.15;;;;;;;6.16;100.00;101518.75;4903103;28;20069;-76
2023/10/18 04:28:57;;;;;;;23.15;17.08;;;;;;;6.12;100.00;101522.09;4890294;29;20062;-76
2023/10/18 04:31:26;;;;;;;23.67;18.58;;;;;;;6.10;100.00;101509.81;4935760;28;20046;-77
2023/10/18 04:33:55;;;;;;;27.20;19.38;;;;;;;6.09;100.00;101514.16;4931509;29;20058;-77
2023/10/18 04:36:23;;;;;;;28.60;20.90;;;;;;;6.07;100.00;101508.00;4928666;29;20068;-77
2023/10/18 04:38:51;;;;;;;25.05;20.42;;;;;;;6.06;100.00;101508.81;4921210;29;20040;-76
2023/10/18 04:41:23;;;;;;;26.02;20.63;;;;;;;6.03;100.00;101506.09;4901187;28;20047;-76
2023/10/18 04:46:30;;;;;;;24.45;18.90;;;;;;;5.99;100.00;101497.28;4930465;28;20476;-78
2023/10/18 04:51:43;;;;;;;24.23;18.95;;;;;;;5.95;100.00;101486.63;4947260;29;20567;-76
2023/10/18 04:54:15;;;;;;;23.90;18.08;;;;;;;5.94;100.00;101492.72;4907322;29;20059;-77
2023/10/18 04:56:46;;;;;;;25.48;17.25;;;;;;;5.92;100.00;101478.69;4905841;28;20062;-77
2023/10/18 05:04:40;;;;;;;22.13;16.95;;;;;;;5.88;100.00;101472.47;4922499;29;20051;-78
2023/10/18 05:17:30;;;;;;;23.67;16.90;;;;;;;5.82;100.00;101459.16;4890978;29;20319;-77
2023/10/18 05:19:58;;;;;;;23.98;16.17;;;;;;;5.81;100.00;101468.75;4930747;29;20125;-76
2023/10/18 05:22:25;;;;;;;26.40;16.50;;;;;;;5.81;100.00;101466.13;4940385;29;20044;-76
2023/10/18 05:25:23;;;;;;;27.20;16.17;;;;;;;5.82;100.00;101452.22;4936803;28;20038;-77
2023/10/18 05:42:00;;;;;;;18.85;13.95;;;;;;;5.82;100.00;101439.16;4939106;28;20047;-77
2023/10/18 05:44:02;;;;;;;21.33;14.55;;;;;;;5.82;100.00;101446.09;4879024;29;20059;-78
2023/10/18 05:46:34;;;;;;;25.58;14.48;;;;;;;5.84;100.00;101447.03;4891878;29;20055;-79
2023/10/18 05:49:04;;;;;;;22.67;15.15;;;;;;;5.84;100.00;101441.78;4926623;29;20047;-76
2023/10/18 05:51:34;;;;;;;21.88;14.00;;;;;;;5.84;100.00;101437.47;4948705;29;20051;-77
2023/10/18 05:54:05;;;;;;;22.33;14.70;;;;;;;5.86;100.00;101441.03;4933355;28;21028;-77
2023/10/18 05:56:33;;;;;;;29.98;15.20;;;;;;;5.86;100.00;101438.41;4944189;28;20439;-78
2023/10/18 06:02:16;;;;;;;22.85;14.18;;;;;;;5.88;100.00;101428.00;4934842;28;20472;-80
2023/10/18 06:04:44;;;;;;;;;;;;;;;5.88;100.00;101432.31;4908328;29;20059;-77
2023/10/18 06:07:12;;;;;;;23.30;14.95;;;;;;;5.87;100.00;101434.06;4906255;29;20394;-78
2023/10/18 06:09:48;;;;;;;26.67;15.90;;;;;;;5.86;100.00;101433.19;4933047;29;20425;-77
2023/10/18 06:12:24;;;;;;;28.58;16.65;;;;;;;5.84;100.00;101432.25;4890025;28;21561;-79
2023/10/18 06:14:54;;;;;;;25.75;16.63;;;;;;;5.83;100.00;101426.97;4881683;29;20051;-78
2023/10/18 06:20:24;;;;;;;25.90;16.52;;;;;;;5.84;100.00;101419.16;4938673;29;20412;-79
2023/10/18 06:23:08;;;;;;;25.15;16.23;;;;;;;5.85;100.00;101414.81;4920774;29;20056;-78
2023/10/18 06:28:31;;;;;;;27.05;16.92;;;;;;;5.85;100.00;101414.81;4921797;29;20051;-78
2023/10/18 06:30:59;;;;;;;23.67;15.10;;;;;;;5.88;100.00;101416.63;4894556;29;20060;-78
2023/10/18 06:33:35;;;;;;;24.98;15.15;;;;;;;5.89;100.00;101416.69;4951935;29;20062;-78
2023/10/18 06:36:12;;;;;;;22.98;14.85;;;;;;;5.92;100.00;101405.44;4903258;29;20066;-77
2023/10/18 06:38:42;;;;;;;24.08;15.30;;;;;;;5.94;100.00;101409.88;4934643;29;20039;-77
2023/10/18 06:41:22;;;;;;;25.27;15.07;;;;;;;5.97;100.00;101407.41;4932763;29;20055;-77
2023/10/18 06:43:52;;;;;;;22.85;13.93;;;;;;;6.01;100.00;101405.72;4920789;29;20055;-78
2023/10/18 06:46:30;;;;;;;24.13;14.90;;;;;;;6.02;100.00;101405.78;4880001;29;20097;-77
2023/10/18 06:49:00;;;;;;;21.55;15.45;;;;;;;6.06;100.00;101398.91;4923683;29;20054;-77
2023/10/18 06:51:43;;;;;;;24.70;14.18;;;;;;;6.09;100.00;101398.13;4931356;29;20052;-77
2023/10/18 06:54:14;;;;;;;25.80;14.95;;;;;;;6.13;100.00;101397.41;4930864;29;20047;-78
2023/10/18 06:56:45;;;;;;;26.27;16.08;;;;;;;6.14;100.00;101393.91;4917911;29;20047;-77
2023/10/18 06:59:13;;;;;;;23.73;15.02;;;;;;;6.20;100.00;101401.94;4906682;29;20047;-78
2023/10/18 07:01:58;;;;;;;21.75;15.40;;;;;;;6.25;100.00;101395.13;4888171;29;20420;-78
2023/10/18 07:04:36;;;;;;;25.67;16.30;;;;;;;6.30;100.00;101398.78;4919576;29;20485;-77
2023/10/18 07:07:19;;;;;;;21.88;15.35;;;;;;;6.34;100.00;101395.41;4932191;29;20086;-76
2023/10/18 07:09:54;;;;;;;21.95;15.40;;;;;;;6.38;100.00;101396.38;4916303;29;20051;-77
2023/10/18 07:12:28;;;;;;;21.20;14.30;;;;;;;6.40;100.00;101389.44;4918969;29;20039;-79
2023/10/18 07:14:56;;;;;;;20.58;13.10;;;;;;;6.43;100.00;101385.19;4910322;29;20390;-78
2023/10/18 07:17:24;;;;;;;18.85;12.32;;;;;;;6.48;100.00;101390.56;4892576;29;20077;-77
2023/10/18 07:19:55;;;;;;;18.80;12.13;;;;;;;6.50;100.00;101377.50;4924510;29;20068;-77
2023/10/18 07:22:44;;;;;;;19.13;13.02;;;;;;;6.53;100.00;101386.34;4937324;28;20047;-78
2023/10/18 07:25:21;;;;;;;21.10;11.98;;;;;;;6.56;100.00;101375.06;4932404;29;20047;-77
2023/10/18 07:27:50;;;;;;;17.80;11.77;;;;;;;6.61;100.00;101371.72;4934567;29;20093;-76
2023/10/18 07:30:17;;;;;;;18.55;11.07;;;;;;;6.64;100.00;101363.97;4917010;29;20840;-78
2023/10/18 07:32:47;;;;;;;16.63;11.20;;;;;;;6.71;100.00;101364.13;4863016;29;20504;-78
2023/10/18 07:35:30;;;;;;;16.15;10.57;;;;;;;6.76;100.00;101355.53;4925251;28;20517;-77
2023/10/18 07:37:58;;;;;;;13.73;9.75;;;;;;;6.80;100.00;101353.91;4922379;29;20059;-77
2023/10/18 07:40:33;;;;;;;13.63;10.27;;;;;;;6.84;100.00;101360.97;4931459;29;20055;-77
2023/10/18 07:43:04;;;;;;;13.88;9.35;;;;;;;6.89;100.00;101362.00;4917080;29;20051;-77
2023/10/18 07:45:32;;;;;;;11.80;9.68;;;;;;;6.96;100.00;101366.56;4908623;29;20062;-78
2023/10/18 07:47:59;;;;;;;15.65;11.45;;;;;;;7.03;100.00;101351.88;4876637;29;20062;-78
2023/10/18 07:53:12;;;;;;;13.45;9.10;;;;;;;7.20;100.00;101349.69;4919495;29;20394;-80
2023/10/18 07:55:42;;;;;;;13.80;9.68;;;;;;;7.32;100.00;101350.00;4930524;29;20051;-77
2023/10/18 07:58:22;;;;;;;;;;;;;;;7.37;100.00;101337.91;4905818;29;20027;-79
2023/10/18 08:03:31;;;;;;;;;;;;;;;7.54;100.00;101340.91;4889438;29;20043;-77
2023/10/18 08:06:06;;;;;;;16.17;11.18;;;;;;;7.60;100.00;101337.56;4936395;29;19922;-76
2023/10/18 08:08:36;;;;;;;20.23;10.88;;;;;;;7.65;100.00;101319.28;4930255;29;20055;-79
2023/10/18 08:11:06;;;;;;;15.53;10.27;;;;;;;7.69;100.00;101318.50;4902565;29;20504;-80
2023/10/18 08:13:39;;;;;;;12.20;9.98;;;;;;;7.72;100.00;101329.94;4904348;29;20062;-77
2023/10/18 08:16:10;;;;;;;16.75;10.63;;;;;;;7.81;100.00;101319.66;4877179;29;20051;-77
2023/10/18 08:18:43;;;;;;;15.77;11.45;;;;;;;7.90;100.00;101320.72;4877856;28;20051;-78
2023/10/18 08:21:26;;;;;;;21.60;14.35;;;;;;;8.01;100.00;101313.94;4920046;29;20039;-76
2023/10/18 08:23:57;;;;;;;20.00;14.35;;;;;;;8.15;100.00;101304.63;4908844;29;20040;-77
2023/10/18 08:26:28;;;;;;;;;;;;;;;8.26;100.00;101310.09;4924856;29;20059;-76
2023/10/18 08:28:55;;;;;;;21.02;14.85;;;;;;;8.46;100.00;101301.75;4900073;29;19948;-79
2023/10/18 08:31:32;;;;;;;14.50;12.30;;;;;;;8.56;100.00;101299.34;4912056;28;20420;-78
2023/10/18 08:34:18;;;;;;;14.50;11.70;;;;;;;8.62;100.00;101295.03;4890256;29;20606;-78
2023/10/18 08:36:45;;;;;;;11.38;8.65;;;;;;;8.62;100.00;101289.78;4929769;29;20556;-77
2023/10/18 08:39:13;;;;;;;13.00;8.85;;;;;;;8.70;100.00;101278.56;4930320;29;20051;-77
2023/10/18 08:41:59;;;;;;;15.20;8.75;;;;;;;8.76;100.00;101293.56;4920923;28;20533;-77
2023/10/18 08:44:29;;;;;;;12.60;9.32;;;;;;;8.69;100.00;101281.16;4920777;29;20513;-77
2023/10/18 08:49:51;;;;;;;13.48;8.43;;;;;;;8.74;100.00;101274.25;4878597;29;19930;-77
2023/10/18 08:52:28;;;;;;;12.38;8.75;;;;;;;8.78;100.00;101274.31;4929998;29;20059;-77
2023/10/18 08:55:22;;;;;;;11.60;8.35;;;;;;;8.81;100.00;101284.03;4948542;29;20782;-78
2023/10/18 08:57:48;;;;;;;11.05;8.27;;;;;;;8.80;100.00;101274.34;4931115;29;20031;-78
2023/10/18 09:01:03;;;;;;;12.50;7.85;;;;;;;8.79;100.00;101272.59;4893198;29;20035;-78
2023/10/18 09:03:07;;;;;;;9.98;7.35;;;;;;;8.82;100.00;101275.25;4925982;29;20047;-79
2023/10/18 09:05:37;;;;;;;;;;;;;;;8.83;100.00;101278.75;4893019;28;20046;-77
2023/10/18 09:08:08;;;;;;;13.75;9.02;;;;;;;8.84;100.00;101281.44;4930844;29;19926;-78
2023/10/18 09:18:31;;;;;;;13.40;9.35;;;;;;;8.84;100.00;101255.16;4929399;28;20059;-75
2023/10/18 09:23:40;;;;;;;13.10;9.53;;;;;;;8.91;100.00;101250.88;4940699;28;20400;-76
2023/10/18 09:26:10;;;;;;;12.18;9.43;;;;;;;8.89;100.00;101247.34;4920026;29;20664;-77
2023/10/18 09:28:41;;;;;;;11.73;7.72;;;;;;;8.87;100.00;101249.06;4912626;29;20548;-76
2023/10/18 09:31:18;;;;;;;9.95;7.50;;;;;;;8.86;100.00;101248.16;4901912;28;20052;-77
2023/10/18 09:33:49;;;;;;;11.73;7.40;;;;;;;8.85;100.00;101238.53;4890123;29;20047;-77
2023/10/18 09:36:20;;;;;;;9.60;7.72;;;;;;;8.85;100.00;101227.16;4873827;28;20047;-76
2023/10/18 09:38:49;;;;;;;10.82;7.68;;;;;;;8.89;100.00;101236.84;4913973;29;20489;-77
2023/10/18 09:41:17;;;;;;;10.55;8.30;;;;;;;8.92;100.00;101229.00;4925912;29;20540;-78
2023/10/18 09:43:47;;;;;;;11.32;8.35;;;;;;;8.94;100.00;101217.66;4908631;29;20062;-77
2023/10/18 09:46:16;;;;;;;9.90;7.97;;;;;;;8.95;100.00;101206.28;4920925;29;20055;-78
2023/10/18 09:48:46;;;;;;;9.93;8.48;;;;;;;9.02;100.00;101195.84;4929487;29;20055;-77
2023/10/18 09:51:20;;;;;;;10.52;8.25;;;;;;;9.07;100.00;101194.16;4881754;28;20413;-79
2023/10/18 09:53:50;;;;;;;9.70;7.53;;;;;;;9.11;100.00;101182.84;4903968;28;20058;-79
2023/10/18 09:56:28;;;;;;;11.70;7.82;;;;;;;9.14;100.00;101183.75;4934864;29;20051;-78
2023/10/18 09:59:12;;;;;;;10.27;7.78;;;;;;;9.16;100.00;101175.91;4930551;29;20051;-77
2023/10/18 10:04:14;;;;;;;9.23;7.43;;;;;;;9.30;100.00;101169.09;4928398;29;20051;-76
2023/10/18 10:06:46;;;;;;;10.65;8.43;;;;;;;9.36;100.00;101160.41;4876896;28;20059;-77
2023/10/18 10:09:14;;;;;;;9.68;7.38;;;;;;;9.41;100.00;101158.69;4921658;29;20051;-78
2023/10/18 10:11:46;;;;;;;12.15;8.57;;;;;;;9.49;100.00;101162.34;4921051;29;20047;-77
2023/10/18 10:14:21;;;;;;;9.60;8.40;;;;;;;9.57;100.00;101159.81;4930262;29;20047;-76
2023/10/18 10:17:07;;;;;;;9.63;8.07;;;;;;;9.62;100.00;101157.22;4932203;28;20043;-77
2023/10/18 10:19:51;;;;;;;9.05;8.07;;;;;;;9.64;100.00;101166.00;4930105;29;20051;-79
2023/10/18 10:22:24;;;;;;;10.45;7.95;;;;;;;9.66;100.00;101143.22;4885164;28;20059;-79
2023/10/18 10:25:03;;;;;;;9.13;7.72;;;;;;;9.75;100.00;101141.59;4930745;29;20040;-77
2023/10/18 10:27:53;;;;;;;8.40;7.57;;;;;;;9.80;100.00;101144.28;4942021;29;20043;-80
2023/10/18 10:33:05;;;;;;;13.32;7.45;;;;;;;9.84;100.00;101132.91;4926804;28;20130;-81
2023/10/18 10:35:44;;;;;;;9.07;7.28;;;;;;;9.91;100.00;101128.59;4932366;29;20054;-79
2023/10/18 10:38:21;;;;;;;12.70;7.88;;;;;;;9.94;100.00;101131.25;4862132;29;20056;-82
2023/10/18 10:41:19;;;;;;;10.07;7.00;;;;;;;10.00;100.00;101128.69;4919400;28;20040;-81
2023/10/18 10:44:54;;;;;;;10.55;7.10;;;;;;;10.07;100.00;101127.88;4936629;28;20420;-81
2023/10/18 10:47:32;;;;;;;11.82;7.15;;;;;;;10.15;100.00;101114.78;4925074;29;20553;-81
2023/10/18 10:50:00;;;;;;;8.90;6.82;;;;;;;10.20;100.00;101115.72;4934876;28;20062;-81
2023/10/18 10:52:30;;;;;;;10.00;7.15;;;;;;;10.20;100.00;101101.66;4912503;29;20711;-79
2023/10/18 10:55:18;;;;;;;8.55;7.55;;;;;;;10.17;100.00;101097.25;4868722;28;20047;-78
2023/10/18 10:57:46;;;;;;;9.55;7.40;;;;;;;10.16;100.00;101092.84;4933841;29;20054;-79
2023/10/18 11:03:06;;;;;;;8.02;6.18;;;;;;;10.14;100.00;101081.44;4922488;28;20051;-78
2023/10/18 11:05:39;;;;;;;7.82;6.82;;;;;;;10.14;100.00;101084.94;4936724;29;20063;-79
2023/10/18 11:08:06;;;;;;;11.82;7.53;;;;;;;10.15;100.00;101081.44;4875902;29;20707;-79
2023/10/18 11:10:39;;;;;;;14.32;7.25;;;;;;;10.18;100.00;101061.28;4918249;29;20063;-79
2023/10/18 11:13:08;;;;;;;7.63;6.82;;;;;;;10.21;100.00;101066.53;4947610;29;20048;-79
2023/10/18 11:15:36;;;;;;;12.40;7.70;;;;;;;10.22;100.00;101055.16;4920564;29;20059;-80
2023/10/18 11:18:19;;;;;;;7.82;6.75;;;;;;;10.25;100.00;101031.47;4905405;28;20862;-78
2023/10/18 11:20:58;;;;;;;8.70;6.72;;;;;;;10.23;100.00;101039.38;4946025;29;20043;-78
2023/10/18 11:23:29;;;;;;;12.07;7.05;;;;;;;10.26;100.00;101036.75;4909855;29;20047;-78
2023/10/18 11:25:59;;;;;;;8.30;6.32;;;;;;;10.28;100.00;101028.84;4880952;28;20723;-78
2023/10/18 11:28:29;;;;;;;13.05;7.22;;;;;;;10.29;100.00;101031.50;4904408;28;20516;-79
2023/10/18 11:30:57;;;;;;;7.63;6.40;;;;;;;10.31;100.00;101023.66;4921112;29;20062;-79
2023/10/18 11:33:47;;;;;;;7.53;6.47;;;;;;;10.26;100.00;101013.03;4944319;29;20050;-78
2023/10/18 11:36:18;;;;;;;9.60;7.10;;;;;;;10.29;100.00;101005.16;4943865;29;20039;-78
2023/10/18 11:41:34;;;;;;;9.70;6.80;;;;;;;10.36;100.00;101006.13;4943989;29;20062;-77
2023/10/18 11:44:20;;;;;;;11.43;6.82;;;;;;;10.39;100.00;100994.72;4920500;29;20398;-79
2023/10/18 11:46:50;;;;;;;8.15;6.70;;;;;;;10.40;100.00;100996.50;4921951;29;20517;-79
2023/10/18 11:49:19;;;;;;;8.93;6.82;;;;;;;10.44;100.00;100990.38;4936341;29;20051;-77
2023/10/18 11:51:57;;;;;;;9.48;6.95;;;;;;;10.44;100.00;100985.97;4917294;29;20070;-79
2023/10/18 11:54:32;;;;;;;8.27;6.60;;;;;;;10.41;100.00;100985.94;4915594;28;20047;-80
2023/10/18 11:57:01;;;;;;;12.40;6.47;;;;;;;10.37;100.00;100971.00;4910345;29;20055;-79
2023/10/18 11:59:29;;;;;;;7.80;6.82;;;;;;;10.34;100.00;100971.88;4917144;29;20501;-79
2023/10/18 12:02:06;;;;;;;12.30;5.88;;;;;;;10.35;100.00;100962.22;4915183;29;20047;-78
2023/10/18 12:04:39;;;;;;;16.05;6.45;;;;;;;10.39;100.00;100958.72;4917024;29;20513;-78
2023/10/18 12:07:08;;;;;;;7.65;6.28;;;;;;;10.46;100.00;100955.25;4909477;29;20498;-79
2023/10/18 12:09:42;;;;;;;10.15;6.70;;;;;;;10.47;100.00;100933.31;4898269;29;20513;-78
2023/10/18 12:12:13;;;;;;;6.97;5.95;;;;;;;10.50;100.00;100935.06;4907273;29;20047;-78
2023/10/18 12:14:42;;;;;;;10.88;7.05;;;;;;;10.51;100.00;100927.19;4904168;29;20432;-79
2023/10/18 12:17:12;;;;;;;9.20;6.60;;;;;;;10.50;100.00;100925.41;4934668;29;20043;-78
2023/10/18 12:19:41;;;;;;;6.55;5.95;;;;;;;10.51;100.00;100924.53;4929272;29;20054;-79
2023/10/18 12:22:15;;;;;;;8.20;6.10;;;;;;;10.48;100.00;100913.09;4920829;29;20039;-79
2023/10/18 12:24:43;;;;;;;8.48;6.15;;;;;;;10.45;100.00;100903.44;4919111;29;20062;-80
2023/10/18 12:27:21;;;;;;;9.10;5.93;;;;;;;10.44;100.00;100903.44;4879320;29;20048;-80
2023/10/18 12:29:52;;;;;;;8.20;6.07;;;;;;;10.46;100.00;100886.75;4923666;28;20076;-78
2023/10/18 12:32:19;;;;;;;8.23;5.70;;;;;;;10.46;100.00;100886.75;4915310;29;20039;-79
2023/10/18 12:34:56;;;;;;;10.65;6.57;;;;;;;10.47;100.00;100878.00;4930106;29;20056;-78
2023/10/18 12:37:32;;;;;;;7.40;5.95;;;;;;;10.49;100.00;100875.34;4905935;28;20824;-79
2023/10/18 12:40:04;;;;;;;11.75;7.03;;;;;;;10.52;100.00;100870.97;4927523;29;20610;-79
2023/10/18 12:42:33;;;;;;;9.93;6.47;;;;;;;10.64;100.00;100849.06;4906115;28;20039;-77
2023/10/18 12:45:09;;;;;;;9.05;6.50;;;;;;;10.69;100.00;100854.34;4922168;29;20847;-77
2023/10/18 12:47:37;;;;;;;13.82;6.25;;;;;;;10.66;100.00;100836.78;4926173;29;20051;-77
2023/10/18 12:50:05;;;;;;;20.52;6.80;;;;;;;10.69;100.00;100834.13;4907042;29;20493;-76
2023/10/18 12:57:53;;;;;;;10.15;6.70;;;;;;;10.52;100.00;100839.34;4907905;29;20401;-79
2023/10/18 13:00:25;;;;;;;7.00;5.90;;;;;;;10.46;100.00;100822.66;4891707;28;20485;-78
2023/10/18 13:05:40;;;;;;;8.18;6.45;;;;;;;10.40;100.00;100823.50;4917705;29;20055;-79
2023/10/18 13:08:25;;;;;;;11.65;6.78;;;;;;;10.37;100.00;100806.81;4938287;28;20058;-78
2023/10/18 13:13:31;;;;;;;9.32;6.47;;;;;;;10.46;100.00;100807.72;4878951;29;20035;-78